FIN1M EFTP-EFHK
Flight info
| Callsign | FIN1M |
|---|---|
| Flight time | 0h 27m |
| Altitude | 17000 |
| Route | ENETI Y362 LAKUT |
| Aircraft | A319/M-SDE3FGHIRWY/LB1 |
Departure
| Time | 2026-04-26 16:14 |
|---|---|
| Airport | Tampere-Pirkkala Airport (EFTP) |
Arrival
| Time | 2026-04-26 16:41 |
|---|---|
| Airport | Helsinki Vantaa Airport (EFHK) |
| Time | Latitude | Longitude | Altitude | Speed | Heading |
|---|---|---|---|---|---|
| 2026-04-26 16:02 | 61.41953 | 23.61416 | 376 ft | 0 kts | 65° |
| 2026-04-26 16:11 | 61.41958 | 23.61451 | 376 ft | 7 kts | 82° |
| 2026-04-26 16:12 | 61.41926 | 23.61549 | 378 ft | 9 kts | 150° |
| 2026-04-26 16:12 | 61.41878 | 23.61639 | 379 ft | 11 kts | 97° |
| 2026-04-26 16:12 | 61.41905 | 23.62005 | 377 ft | 14 kts | 148° |
| 2026-04-26 16:13 | 61.41794 | 23.62066 | 373 ft | 18 kts | 199° |
| 2026-04-26 16:13 | 61.41761 | 23.61946 | 377 ft | 6 kts | 237° |
| 2026-04-26 16:13 | 61.41740 | 23.61856 | 379 ft | 12 kts | 245° |
| 2026-04-26 16:13 | 61.41550 | 23.61026 | 386 ft | 114 kts | 244° |
| 2026-04-26 16:14 | 61.41153 | 23.59146 | 847 ft | 154 kts | 251° |
| 2026-04-26 16:14 | 61.40678 | 23.57020 | 1782 ft | 169 kts | 254° |
| 2026-04-26 16:14 | 61.39709 | 23.52782 | 3210 ft | 207 kts | 252° |
| 2026-04-26 16:15 | 61.38898 | 23.50251 | 4549 ft | 222 kts | 227° |
| 2026-04-26 16:15 | 61.37405 | 23.48909 | 5622 ft | 253 kts | 192° |
| 2026-04-26 16:15 | 61.35550 | 23.49234 | 6478 ft | 286 kts | 163° |
| 2026-04-26 16:16 | 61.31544 | 23.51330 | 9028 ft | 306 kts | 169° |
| 2026-04-26 16:16 | 61.29420 | 23.52140 | 10294 ft | 317 kts | 170° |
| 2026-04-26 16:16 | 61.27156 | 23.52976 | 11106 ft | 341 kts | 170° |
| 2026-04-26 16:16 | 61.24771 | 23.53888 | 12195 ft | 354 kts | 169° |
| 2026-04-26 16:17 | 61.22322 | 23.54866 | 13345 ft | 364 kts | 169° |
| 2026-04-26 16:17 | 61.19812 | 23.55905 | 14416 ft | 372 kts | 168° |
| 2026-04-26 16:17 | 61.17261 | 23.56986 | 15577 ft | 376 kts | 168° |
| 2026-04-26 16:17 | 61.14697 | 23.58086 | 16451 ft | 377 kts | 168° |
| 2026-04-26 16:18 | 61.12129 | 23.59197 | 16753 ft | 376 kts | 167° |
| 2026-04-26 16:18 | 61.07641 | 23.63955 | 16866 ft | 348 kts | 141° |
| 2026-04-26 16:19 | 61.03768 | 23.69637 | 16858 ft | 340 kts | 141° |
| 2026-04-26 16:19 | 61.01837 | 23.72475 | 16876 ft | 341 kts | 141° |
| 2026-04-26 16:19 | 60.97966 | 23.78141 | 16879 ft | 342 kts | 141° |
| 2026-04-26 16:20 | 60.96025 | 23.80960 | 16857 ft | 342 kts | 141° |
| 2026-04-26 16:20 | 60.92038 | 23.86753 | 16857 ft | 371 kts | 142° |
| 2026-04-26 16:20 | 60.89907 | 23.89846 | 16859 ft | 379 kts | 142° |
| 2026-04-26 16:21 | 60.87743 | 23.92969 | 16862 ft | 380 kts | 142° |
| 2026-04-26 16:21 | 60.85575 | 23.96087 | 16865 ft | 381 kts | 142° |
| 2026-04-26 16:21 | 60.83407 | 23.99204 | 16868 ft | 379 kts | 142° |
| 2026-04-26 16:21 | 60.81264 | 24.02280 | 16850 ft | 376 kts | 143° |
| 2026-04-26 16:22 | 60.79058 | 24.05451 | 16854 ft | 409 kts | 143° |
| 2026-04-26 16:22 | 60.76670 | 24.08882 | 16852 ft | 429 kts | 143° |
| 2026-04-26 16:22 | 60.74200 | 24.12418 | 16847 ft | 436 kts | 143° |
| 2026-04-26 16:22 | 60.71714 | 24.15968 | 16843 ft | 437 kts | 143° |
| 2026-04-26 16:23 | 60.69214 | 24.19528 | 16846 ft | 437 kts | 143° |
| 2026-04-26 16:23 | 60.66721 | 24.23071 | 16846 ft | 438 kts | 143° |
| 2026-04-26 16:23 | 60.64219 | 24.26615 | 16846 ft | 438 kts | 143° |
| 2026-04-26 16:23 | 60.61716 | 24.30152 | 16846 ft | 438 kts | 143° |
| 2026-04-26 16:24 | 60.59260 | 24.33623 | 16700 ft | 440 kts | 143° |
| 2026-04-26 16:24 | 60.56748 | 24.37169 | 15837 ft | 436 kts | 143° |
| 2026-04-26 16:24 | 60.54268 | 24.40667 | 15320 ft | 432 kts | 143° |
| 2026-04-26 16:24 | 60.51818 | 24.44115 | 14719 ft | 424 kts | 143° |
| 2026-04-26 16:25 | 60.49409 | 24.47499 | 14163 ft | 420 kts | 143° |
| 2026-04-26 16:25 | 60.47011 | 24.50862 | 13575 ft | 419 kts | 143° |
| 2026-04-26 16:25 | 60.44594 | 24.54246 | 12960 ft | 423 kts | 143° |
| 2026-04-26 16:25 | 60.42173 | 24.57628 | 12374 ft | 422 kts | 144° |
| 2026-04-26 16:26 | 60.39763 | 24.60990 | 11776 ft | 419 kts | 144° |
| 2026-04-26 16:26 | 60.37371 | 24.64320 | 11180 ft | 416 kts | 144° |
| 2026-04-26 16:26 | 60.34994 | 24.67622 | 10560 ft | 413 kts | 144° |
| 2026-04-26 16:26 | 60.32633 | 24.70898 | 9948 ft | 410 kts | 144° |
| 2026-04-26 16:27 | 60.30283 | 24.74148 | 9307 ft | 407 kts | 144° |
| 2026-04-26 16:27 | 60.28014 | 24.77275 | 8676 ft | 405 kts | 144° |
| 2026-04-26 16:27 | 60.25698 | 24.80461 | 8047 ft | 396 kts | 144° |
| 2026-04-26 16:27 | 60.23525 | 24.83446 | 7524 ft | 362 kts | 144° |
| 2026-04-26 16:28 | 60.21534 | 24.86176 | 7154 ft | 332 kts | 143° |
| 2026-04-26 16:28 | 60.19697 | 24.88690 | 6837 ft | 312 kts | 143° |
| 2026-04-26 16:28 | 60.17924 | 24.91118 | 6351 ft | 307 kts | 142° |
| 2026-04-26 16:28 | 60.16412 | 24.94103 | 5584 ft | 301 kts | 116° |
| 2026-04-26 16:29 | 60.15988 | 24.97746 | 5640 ft | 241 kts | 72° |
| 2026-04-26 16:29 | 60.16663 | 25.00440 | 5435 ft | 206 kts | 38° |
| 2026-04-26 16:29 | 60.17700 | 25.02352 | 5000 ft | 202 kts | 38° |
| 2026-04-26 16:29 | 60.18583 | 25.04587 | 4514 ft | 207 kts | 52° |
| 2026-04-26 16:30 | 60.19182 | 25.07230 | 3970 ft | 208 kts | 54° |
| 2026-04-26 16:30 | 60.20146 | 25.09104 | 3499 ft | 186 kts | 14° |
| 2026-04-26 16:30 | 60.21348 | 25.08881 | 3026 ft | 172 kts | 335° |
| 2026-04-26 16:30 | 60.22254 | 25.07438 | 2733 ft | 154 kts | 323° |
| 2026-04-26 16:31 | 60.23097 | 25.06391 | 2579 ft | 138 kts | 338° |
| 2026-04-26 16:31 | 60.23986 | 25.05736 | 2192 ft | 134 kts | 340° |
| 2026-04-26 16:31 | 60.24822 | 25.04945 | 1757 ft | 134 kts | 334° |
| 2026-04-26 16:31 | 60.25630 | 25.04148 | 1508 ft | 123 kts | 335° |
| 2026-04-26 16:32 | 60.26329 | 25.03298 | 1359 ft | 111 kts | 335° |
| 2026-04-26 16:32 | 60.26768 | 25.02810 | 1254 ft | 108 kts | 336° |
| 2026-04-26 16:32 | 60.27656 | 25.01995 | 987 ft | 106 kts | 342° |
| 2026-04-26 16:32 | 60.28323 | 25.01399 | 791 ft | 104 kts | 330° |
| 2026-04-26 16:33 | 60.28897 | 25.00693 | 654 ft | 103 kts | 331° |
| 2026-04-26 16:33 | 60.29536 | 25.00023 | 505 ft | 102 kts | 335° |
| 2026-04-26 16:33 | 60.30169 | 24.99376 | 333 ft | 106 kts | 333° |
| 2026-04-26 16:33 | 60.30822 | 24.98708 | 185 ft | 103 kts | 333° |
| 2026-04-26 16:34 | 60.31397 | 24.98121 | 174 ft | 81 kts | 333° |
| 2026-04-26 16:34 | 60.32030 | 24.97475 | 642 ft | 124 kts | 333° |
| 2026-04-26 16:34 | 60.32830 | 24.96620 | 1600 ft | 155 kts | 334° |
| 2026-04-26 16:34 | 60.33855 | 24.95465 | 1938 ft | 164 kts | 333° |
| 2026-04-26 16:35 | 60.34795 | 24.94389 | 1999 ft | 149 kts | 333° |
| 2026-04-26 16:35 | 60.35609 | 24.93109 | 2146 ft | 151 kts | 307° |
| 2026-04-26 16:35 | 60.35820 | 24.90794 | 2458 ft | 197 kts | 276° |
| 2026-04-26 16:35 | 60.35695 | 24.87884 | 2738 ft | 214 kts | 271° |
| 2026-04-26 16:36 | 60.35513 | 24.84866 | 2941 ft | 218 kts | 271° |
| 2026-04-26 16:36 | 60.35348 | 24.82241 | 2998 ft | 220 kts | 270° |
| 2026-04-26 16:36 | 60.35089 | 24.79175 | 2998 ft | 229 kts | 259° |
| 2026-04-26 16:36 | 60.34131 | 24.76166 | 3015 ft | 274 kts | 234° |
| 2026-04-26 16:37 | 60.32787 | 24.73366 | 3003 ft | 280 kts | 231° |
| 2026-04-26 16:37 | 60.31410 | 24.70634 | 2981 ft | 270 kts | 227° |
| 2026-04-26 16:37 | 60.29732 | 24.69283 | 3025 ft | 259 kts | 184° |
| 2026-04-26 16:37 | 60.28066 | 24.70356 | 2710 ft | 250 kts | 139° |
| 2026-04-26 16:38 | 60.27116 | 24.73044 | 2393 ft | 231 kts | 102° |
| 2026-04-26 16:38 | 60.26869 | 24.76166 | 1939 ft | 221 kts | 81° |
| 2026-04-26 16:38 | 60.27056 | 24.79095 | 1598 ft | 201 kts | 69° |
| 2026-04-26 16:38 | 60.27423 | 24.81643 | 1439 ft | 176 kts | 62° |
| 2026-04-26 16:39 | 60.27813 | 24.83775 | 1342 ft | 150 kts | 58° |
| 2026-04-26 16:39 | 60.28195 | 24.85596 | 1169 ft | 132 kts | 53° |
| 2026-04-26 16:39 | 60.28611 | 24.87175 | 1009 ft | 122 kts | 48° |
| 2026-04-26 16:39 | 60.29060 | 24.88624 | 811 ft | 118 kts | 47° |
| 2026-04-26 16:40 | 60.29512 | 24.89934 | 662 ft | 113 kts | 40° |
| 2026-04-26 16:40 | 60.30007 | 24.91171 | 521 ft | 113 kts | 35° |
| 2026-04-26 16:40 | 60.30524 | 24.92322 | 381 ft | 112 kts | 35° |
| 2026-04-26 16:40 | 60.31062 | 24.93485 | 227 ft | 113 kts | 35° |
| 2026-04-26 16:41 | 60.31569 | 24.94602 | 167 ft | 95 kts | 49° |
| 2026-04-26 16:41 | 60.31917 | 24.95367 | 174 ft | 48 kts | 48° |
| 2026-04-26 16:41 | 60.32074 | 24.95719 | 174 ft | 33 kts | 48° |
| 2026-04-26 16:41 | 60.32235 | 24.96077 | 178 ft | 37 kts | 48° |
| 2026-04-26 16:42 | 60.32387 | 24.96449 | 177 ft | 22 kts | 79° |
| 2026-04-26 16:42 | 60.32285 | 24.96687 | 167 ft | 23 kts | 150° |
| 2026-04-26 16:42 | 60.32166 | 24.96828 | 166 ft | 18 kts | 150° |
| 2026-04-26 16:42 | 60.32085 | 24.96882 | 167 ft | 11 kts | 190° |
| 2026-04-26 16:43 | 60.32023 | 24.96850 | 167 ft | 3 kts | 193° |
| 2026-04-26 16:43 | 60.32005 | 24.96843 | 167 ft | 0 kts | 193° |